createdAt,value
2017-09-24T00:00:54.747Z,0.00
2017-09-24T00:01:54.746Z,0.00
2017-09-24T00:02:54.749Z,0.00
2017-09-24T00:03:54.744Z,0.00
2017-09-24T00:04:54.740Z,0.00
2017-09-24T00:05:54.744Z,0.00
2017-09-24T00:06:54.740Z,0.00
2017-09-24T00:07:54.741Z,0.00
2017-09-24T00:08:54.738Z,0.00
2017-09-24T00:09:54.738Z,0.00
2017-09-24T00:10:54.737Z,0.00
2017-09-24T00:11:54.748Z,0.00
2017-09-24T00:12:54.739Z,0.00
2017-09-24T00:13:54.734Z,0.00
2017-09-24T00:14:54.736Z,0.00
2017-09-24T00:15:54.735Z,0.00
2017-09-24T00:16:54.727Z,0.00
2017-09-24T00:17:54.728Z,0.00
2017-09-24T00:18:54.726Z,0.00
2017-09-24T00:19:54.727Z,0.00
2017-09-24T00:20:54.726Z,0.00
2017-09-24T00:21:54.723Z,0.00
2017-09-24T00:22:54.724Z,0.00
2017-09-24T00:23:54.724Z,0.00
2017-09-24T00:24:54.724Z,0.00
2017-09-24T00:25:54.723Z,0.00
2017-09-24T00:26:54.723Z,0.00
2017-09-24T00:27:54.721Z,0.00
2017-09-24T00:28:54.719Z,0.00
2017-09-24T00:29:54.723Z,0.00
2017-09-24T00:30:54.713Z,0.00
2017-09-24T00:31:54.714Z,0.00
2017-09-24T00:32:54.717Z,0.00
2017-09-24T00:33:54.709Z,0.00
2017-09-24T00:34:54.711Z,0.00
2017-09-24T00:35:54.708Z,0.00
2017-09-24T00:36:54.707Z,0.00
2017-09-24T00:37:54.712Z,0.00
2017-09-24T00:38:54.710Z,0.00
2017-09-24T00:39:54.706Z,0.00
2017-09-24T00:40:54.702Z,0.00
2017-09-24T00:41:54.703Z,0.00
2017-09-24T00:42:54.703Z,0.00
2017-09-24T00:43:54.700Z,0.00
2017-09-24T00:44:54.697Z,0.00
2017-09-24T00:45:54.702Z,0.00
2017-09-24T00:46:54.695Z,0.00
2017-09-24T00:47:54.693Z,0.00
2017-09-24T00:48:54.693Z,0.00
2017-09-24T00:49:54.690Z,0.00
2017-09-24T00:50:54.692Z,0.00
2017-09-24T00:51:54.691Z,0.00
2017-09-24T00:52:54.689Z,0.00
2017-09-24T00:53:54.687Z,0.00
2017-09-24T00:54:54.690Z,0.00
2017-09-24T00:55:54.686Z,0.00
2017-09-24T00:56:54.693Z,0.00
2017-09-24T00:57:54.684Z,0.00
2017-09-24T00:58:54.684Z,0.00
2017-09-24T00:59:54.683Z,0.00
2017-09-24T01:00:54.688Z,0.00
2017-09-24T01:01:54.680Z,0.00
2017-09-24T01:02:54.682Z,0.00
2017-09-24T01:03:54.676Z,0.00
2017-09-24T01:04:54.674Z,0.00
2017-09-24T01:05:54.674Z,0.00
2017-09-24T01:06:54.674Z,0.00
2017-09-24T01:07:54.670Z,0.00
2017-09-24T01:08:54.671Z,0.00
2017-09-24T01:09:54.672Z,0.00
2017-09-24T01:10:54.670Z,0.00
2017-09-24T01:11:54.667Z,0.00
2017-09-24T01:12:54.665Z,0.00
2017-09-24T01:13:54.665Z,0.00
2017-09-24T01:14:54.665Z,0.00
2017-09-24T01:15:54.663Z,0.00
2017-09-24T01:16:54.659Z,0.00
2017-09-24T01:17:54.660Z,0.00
2017-09-24T01:18:54.661Z,0.00
2017-09-24T01:19:54.661Z,0.00
2017-09-24T01:20:54.657Z,0.00
2017-09-24T01:21:54.656Z,0.00
2017-09-24T01:22:54.654Z,0.00
2017-09-24T01:23:54.652Z,0.00
2017-09-24T01:24:54.655Z,0.00
2017-09-24T01:25:54.648Z,0.00
2017-09-24T01:26:54.652Z,0.00
2017-09-24T01:27:54.647Z,0.00
2017-09-24T01:28:54.649Z,0.00
2017-09-24T01:29:54.648Z,0.00
2017-09-24T01:30:54.645Z,0.00
2017-09-24T01:31:54.643Z,0.00
2017-09-24T01:32:54.643Z,0.00
2017-09-24T01:33:54.646Z,0.00
2017-09-24T01:34:54.644Z,0.00
2017-09-24T01:35:54.639Z,0.00
2017-09-24T01:36:54.640Z,0.00
2017-09-24T01:37:54.640Z,0.00
2017-09-24T01:38:54.634Z,0.00
2017-09-24T01:39:54.637Z,0.00
2017-09-24T01:40:54.631Z,0.00
2017-09-24T01:41:54.630Z,0.00
2017-09-24T01:42:54.631Z,0.00
2017-09-24T01:43:54.630Z,0.00
2017-09-24T01:44:54.629Z,0.00
2017-09-24T01:45:54.627Z,0.00
2017-09-24T01:46:54.625Z,0.00
2017-09-24T01:47:54.625Z,0.00
2017-09-24T01:48:54.623Z,0.00
2017-09-24T01:49:54.622Z,0.00
2017-09-24T01:50:54.621Z,0.00
2017-09-24T01:51:54.617Z,0.00
2017-09-24T01:52:54.624Z,0.00
2017-09-24T01:53:54.616Z,0.00
2017-09-24T01:54:54.616Z,0.00
2017-09-24T01:55:54.616Z,0.00
2017-09-24T01:56:54.615Z,0.00
2017-09-24T01:57:54.613Z,0.00
2017-09-24T01:58:54.612Z,0.00
2017-09-24T01:59:54.608Z,0.00
2017-09-24T02:00:54.608Z,0.00
2017-09-24T02:01:54.607Z,0.00
2017-09-24T02:02:54.606Z,0.00
2017-09-24T02:03:54.605Z,0.00
2017-09-24T02:04:54.601Z,0.00
2017-09-24T02:05:54.602Z,0.00
2017-09-24T02:06:54.599Z,0.00
2017-09-24T02:07:54.599Z,0.00
2017-09-24T02:08:54.597Z,0.00
2017-09-24T02:09:54.597Z,0.00
2017-09-24T02:10:54.596Z,0.00
2017-09-24T02:11:54.602Z,0.00
2017-09-24T02:12:54.594Z,0.00
2017-09-24T02:13:54.610Z,0.00
2017-09-24T02:14:54.590Z,0.00
2017-09-24T02:15:54.594Z,0.00
2017-09-24T02:16:54.602Z,0.00
2017-09-24T02:17:54.581Z,0.00
2017-09-24T02:18:54.584Z,0.00
2017-09-24T02:19:54.586Z,0.00
2017-09-24T02:20:54.584Z,0.00
2017-09-24T02:21:54.581Z,0.00
2017-09-24T02:22:54.580Z,0.00
2017-09-24T02:23:54.579Z,0.00
2017-09-24T02:24:54.577Z,0.00
2017-09-24T02:25:54.573Z,0.00
2017-09-24T02:26:54.577Z,0.00
2017-09-24T02:27:54.570Z,0.00
2017-09-24T02:28:54.570Z,0.00
2017-09-24T02:29:54.570Z,0.00
2017-09-24T02:30:54.574Z,0.00
2017-09-24T02:31:54.574Z,0.00
2017-09-24T02:32:54.562Z,0.00
2017-09-24T02:33:54.570Z,0.00
2017-09-24T02:34:54.565Z,0.00
2017-09-24T02:35:54.563Z,0.00
2017-09-24T02:36:54.564Z,0.00
2017-09-24T02:37:54.559Z,0.00
2017-09-24T02:38:54.559Z,0.00
2017-09-24T02:39:54.557Z,0.00
2017-09-24T02:40:54.556Z,0.00
2017-09-24T02:41:54.554Z,0.00
2017-09-24T02:42:54.554Z,0.00
2017-09-24T02:43:54.549Z,0.00
2017-09-24T02:44:54.555Z,0.00
2017-09-24T02:45:54.553Z,0.00
2017-09-24T02:46:54.551Z,0.00
2017-09-24T02:47:54.549Z,0.00
2017-09-24T02:48:54.541Z,0.00
2017-09-24T02:49:54.546Z,0.00
2017-09-24T02:50:54.542Z,0.00
2017-09-24T02:51:54.542Z,0.00
2017-09-24T02:52:54.541Z,0.00
2017-09-24T02:53:54.538Z,0.00
2017-09-24T02:54:54.537Z,0.00
2017-09-24T02:55:54.536Z,0.00
2017-09-24T02:56:54.538Z,0.00
2017-09-24T02:57:54.535Z,0.00
2017-09-24T02:58:54.532Z,0.00
2017-09-24T02:59:54.530Z,0.00
2017-09-24T03:00:54.530Z,0.00
2017-09-24T03:01:54.529Z,0.00
2017-09-24T03:02:54.526Z,0.00
2017-09-24T03:03:54.524Z,0.00
2017-09-24T03:04:54.518Z,0.00
2017-09-24T03:05:54.520Z,0.00
2017-09-24T03:06:54.521Z,0.00
2017-09-24T03:07:54.520Z,0.00
2017-09-24T03:08:54.518Z,0.00
2017-09-24T03:09:54.515Z,0.00
2017-09-24T03:10:54.517Z,0.00
2017-09-24T03:11:54.513Z,0.00
2017-09-24T03:12:54.512Z,0.00
2017-09-24T03:13:54.512Z,0.00
2017-09-24T03:14:54.510Z,0.00
2017-09-24T03:15:54.509Z,0.00
2017-09-24T03:16:54.513Z,0.00
2017-09-24T03:17:54.506Z,0.00
2017-09-24T03:18:54.503Z,0.00
2017-09-24T03:19:54.504Z,0.00
2017-09-24T03:20:54.502Z,0.00
2017-09-24T03:21:54.498Z,0.00
2017-09-24T03:22:54.500Z,0.00
2017-09-24T03:23:54.496Z,0.00
2017-09-24T03:24:54.494Z,0.00
2017-09-24T03:25:54.493Z,0.00
2017-09-24T03:26:54.492Z,0.00
2017-09-24T03:27:54.490Z,0.00
2017-09-24T03:28:54.490Z,0.00
2017-09-24T03:29:54.488Z,0.00
2017-09-24T03:30:54.488Z,0.00
2017-09-24T03:31:54.484Z,0.00
2017-09-24T03:32:54.484Z,0.00
2017-09-24T03:33:54.494Z,0.00
2017-09-24T03:34:54.483Z,0.00
2017-09-24T03:35:54.478Z,0.00
2017-09-24T03:36:54.477Z,0.00
2017-09-24T03:37:54.478Z,0.00
2017-09-24T03:38:54.476Z,0.00
2017-09-24T03:39:54.471Z,0.00
2017-09-24T03:40:54.472Z,0.00
2017-09-24T03:41:54.474Z,0.00
2017-09-24T03:42:54.467Z,0.00
2017-09-24T03:43:54.468Z,0.00
2017-09-24T03:44:54.464Z,0.00
2017-09-24T03:45:54.463Z,0.00
2017-09-24T03:46:54.464Z,0.00
2017-09-24T03:47:54.460Z,0.00
2017-09-24T03:48:54.457Z,0.00
2017-09-24T03:49:54.459Z,0.00
2017-09-24T03:50:54.457Z,0.00
2017-09-24T03:51:54.455Z,0.00
2017-09-24T03:52:54.453Z,0.00
2017-09-24T03:53:54.452Z,0.00
2017-09-24T03:54:54.450Z,0.00
2017-09-24T03:55:54.448Z,0.00
2017-09-24T03:56:54.448Z,0.00
2017-09-24T03:57:54.446Z,0.00
2017-09-24T03:58:54.443Z,0.00
2017-09-24T03:59:54.441Z,0.00
2017-09-24T04:00:54.436Z,0.00
2017-09-24T04:01:54.445Z,0.00
2017-09-24T04:02:54.437Z,0.00
2017-09-24T04:03:54.437Z,0.00
2017-09-24T04:04:54.434Z,0.00
2017-09-24T04:05:54.436Z,0.00
2017-09-24T04:06:54.432Z,0.00
2017-09-24T04:07:54.428Z,0.00
2017-09-24T04:08:54.429Z,0.00
2017-09-24T04:09:54.429Z,0.00
2017-09-24T04:10:54.425Z,0.00
2017-09-24T04:11:54.422Z,0.00
2017-09-24T04:12:54.423Z,0.00
2017-09-24T04:13:54.422Z,0.00
2017-09-24T04:14:54.420Z,0.00
2017-09-24T04:15:54.415Z,0.00
2017-09-24T04:16:54.416Z,0.00
2017-09-24T04:17:54.412Z,0.00
2017-09-24T04:18:54.410Z,0.00
2017-09-24T04:19:54.412Z,0.00
2017-09-24T04:20:54.412Z,0.00
2017-09-24T04:21:54.410Z,0.00
2017-09-24T04:22:54.405Z,0.00
2017-09-24T04:23:54.400Z,0.00
2017-09-24T04:24:54.404Z,0.00
2017-09-24T04:25:54.403Z,0.00
2017-09-24T04:26:54.407Z,0.00
2017-09-24T04:27:54.396Z,0.00
2017-09-24T04:28:54.397Z,0.00
2017-09-24T04:29:54.393Z,0.00
2017-09-24T04:30:54.396Z,0.00
2017-09-24T04:31:54.392Z,0.00
2017-09-24T04:32:54.391Z,4.00
2017-09-24T04:33:54.388Z,4.00
2017-09-24T04:34:54.386Z,0.00
2017-09-24T04:35:54.385Z,4.00
2017-09-24T04:36:54.384Z,8.00
2017-09-24T04:37:54.381Z,4.00
2017-09-24T04:38:54.380Z,4.00
2017-09-24T04:39:54.379Z,8.00
2017-09-24T04:40:54.375Z,8.00
2017-09-24T04:41:54.375Z,12.00
2017-09-24T04:42:54.374Z,12.00
2017-09-24T04:43:54.366Z,16.00
2017-09-24T04:44:54.371Z,20.00
2017-09-24T04:45:54.368Z,16.00
2017-09-24T04:46:54.370Z,20.00
2017-09-24T04:47:54.371Z,24.00
2017-09-24T04:48:54.365Z,28.00
2017-09-24T04:49:54.363Z,32.00
2017-09-24T04:50:54.361Z,32.00
2017-09-24T04:51:54.355Z,40.00
2017-09-24T04:52:54.359Z,40.00
2017-09-24T04:53:54.352Z,48.00
2017-09-24T04:54:54.355Z,48.00
2017-09-24T04:55:54.352Z,52.00
2017-09-24T04:56:54.352Z,60.00
2017-09-24T04:57:54.351Z,60.00
2017-09-24T04:58:54.348Z,68.00
2017-09-24T04:59:54.344Z,72.00
2017-09-24T05:00:54.353Z,76.00
2017-09-24T05:01:54.345Z,80.00
2017-09-24T05:02:54.343Z,80.00
2017-09-24T05:03:54.339Z,84.00
2017-09-24T05:04:54.339Z,92.00
2017-09-24T05:05:54.337Z,96.00
2017-09-24T05:06:54.342Z,100.00
2017-09-24T05:07:54.339Z,104.00
2017-09-24T05:08:54.331Z,104.00
2017-09-24T05:09:54.331Z,112.00
2017-09-24T05:10:54.330Z,124.00
2017-09-24T05:11:54.324Z,132.00
2017-09-24T05:12:54.333Z,148.00
2017-09-24T05:13:54.326Z,148.00
2017-09-24T05:14:54.322Z,152.00
2017-09-24T05:15:54.320Z,172.00
2017-09-24T05:16:54.321Z,192.00
2017-09-24T05:17:54.318Z,212.00
2017-09-24T05:18:54.316Z,224.00
2017-09-24T05:19:54.323Z,232.00
2017-09-24T05:20:54.314Z,240.00
2017-09-24T05:21:54.310Z,236.00
2017-09-24T05:22:54.308Z,240.00
2017-09-24T05:23:54.306Z,240.00
2017-09-24T05:24:54.308Z,228.00
2017-09-24T05:25:54.305Z,232.00
2017-09-24T05:26:54.306Z,260.00
2017-09-24T05:27:54.313Z,292.00
2017-09-24T05:28:54.304Z,304.00
2017-09-24T05:29:54.295Z,328.00
2017-09-24T05:30:54.314Z,360.00
2017-09-24T05:31:54.293Z,372.00
2017-09-24T05:32:54.296Z,384.00
2017-09-24T05:33:54.293Z,368.00
2017-09-24T05:34:54.289Z,352.00
2017-09-24T05:35:54.290Z,340.00
2017-09-24T05:36:54.298Z,332.00
2017-09-24T05:37:54.281Z,356.00
2017-09-24T05:38:54.297Z,360.00
2017-09-24T05:39:54.284Z,384.00
2017-09-24T05:40:54.281Z,392.00
2017-09-24T05:41:54.280Z,388.00
2017-09-24T05:42:54.277Z,372.00
2017-09-24T05:43:54.275Z,324.00
2017-09-24T05:44:54.278Z,300.00
2017-09-24T05:45:54.273Z,304.00
2017-09-24T05:46:54.271Z,324.00
2017-09-24T05:47:54.268Z,352.00
2017-09-24T05:48:54.269Z,380.00
2017-09-24T05:49:54.267Z,424.00
2017-09-24T05:50:54.262Z,468.00
2017-09-24T05:51:54.268Z,472.00
2017-09-24T05:52:54.266Z,520.00
2017-09-24T05:53:54.267Z,532.00
2017-09-24T05:54:54.262Z,520.00
2017-09-24T05:55:54.259Z,484.00
2017-09-24T05:56:54.260Z,432.00
2017-09-24T05:57:54.257Z,412.00
2017-09-24T05:58:54.254Z,412.00
2017-09-24T05:59:54.252Z,408.00
2017-09-24T06:00:54.252Z,400.00
2017-09-24T06:01:54.250Z,404.00
2017-09-24T06:02:54.253Z,404.00
2017-09-24T06:03:54.249Z,408.00
2017-09-24T06:04:54.246Z,424.00
2017-09-24T06:05:54.245Z,440.00
2017-09-24T06:06:54.243Z,452.00
2017-09-24T06:07:54.238Z,464.00
2017-09-24T06:08:54.240Z,468.00
2017-09-24T06:09:54.241Z,460.00
2017-09-24T06:10:54.241Z,460.00
2017-09-24T06:11:54.241Z,480.00
2017-09-24T06:12:54.236Z,516.00
2017-09-24T06:13:54.234Z,540.00
2017-09-24T06:14:54.233Z,576.00
2017-09-24T06:15:54.232Z,624.00
2017-09-24T06:16:54.236Z,656.00
2017-09-24T06:17:54.229Z,676.00
2017-09-24T06:18:54.227Z,696.00
2017-09-24T06:19:54.226Z,704.00
2017-09-24T06:20:54.228Z,724.00
2017-09-24T06:21:54.222Z,756.00
2017-09-24T06:22:54.230Z,792.00
2017-09-24T06:23:54.221Z,824.00
2017-09-24T06:24:54.221Z,864.00
2017-09-24T06:25:54.219Z,912.00
2017-09-24T06:26:54.220Z,960.00
2017-09-24T06:27:54.215Z,992.00
2017-09-24T06:28:54.212Z,1012.00
2017-09-24T06:29:54.211Z,1028.00
2017-09-24T06:30:54.211Z,1048.00
2017-09-24T06:31:54.208Z,1080.00
2017-09-24T06:32:54.208Z,1096.00
2017-09-24T06:33:54.208Z,1084.00
2017-09-24T06:34:54.205Z,1064.00
2017-09-24T06:35:54.209Z,1080.00
2017-09-24T06:36:54.204Z,1088.00
2017-09-24T06:37:54.201Z,1096.00
2017-09-24T06:38:54.201Z,1120.00
2017-09-24T06:39:54.198Z,1176.00
2017-09-24T06:40:54.199Z,1264.00
2017-09-24T06:42:01.826Z,1352.00
2017-09-24T06:43:47.581Z,1500.00
2017-09-24T06:44:47.564Z,1624.00
2017-09-24T06:46:43.642Z,1852.00
2017-09-24T06:47:43.621Z,1980.00
2017-09-24T06:48:43.623Z,2084.00
2017-09-24T06:49:43.618Z,2184.00
2017-09-24T06:50:43.620Z,2220.00
2017-09-24T06:51:43.617Z,2248.00
2017-09-24T06:52:43.616Z,2344.00
2017-09-24T06:53:43.615Z,2480.00
2017-09-24T06:54:43.613Z,2560.00
2017-09-24T06:55:43.614Z,2584.00
2017-09-24T06:56:43.611Z,2552.00
2017-09-24T06:57:43.615Z,2508.00
2017-09-24T06:58:43.608Z,2584.00
2017-09-24T06:59:43.609Z,2672.00
2017-09-24T07:00:43.606Z,2776.00
2017-09-24T07:01:43.608Z,2916.00
2017-09-24T07:02:43.612Z,3072.00
2017-09-24T07:03:43.607Z,3224.00
2017-09-24T07:04:43.603Z,3212.00
2017-09-24T07:05:43.601Z,3132.00
2017-09-24T07:06:43.601Z,3112.00
2017-09-24T07:07:43.604Z,3204.00
2017-09-24T07:08:43.600Z,3404.00
2017-09-24T07:09:43.600Z,3644.00
2017-09-24T07:10:43.599Z,3876.00
2017-09-24T07:11:43.595Z,4040.00
2017-09-24T07:12:43.596Z,4212.00
2017-09-24T07:13:43.597Z,4336.00
2017-09-24T07:14:43.596Z,4412.00
2017-09-24T07:15:43.595Z,4504.00
2017-09-24T07:16:43.595Z,4564.00
2017-09-24T07:17:43.596Z,4596.00
2017-09-24T07:18:43.594Z,4524.00
2017-09-24T07:19:43.591Z,4420.00
2017-09-24T07:20:43.595Z,4408.00
2017-09-24T07:21:43.596Z,4432.00
2017-09-24T07:22:43.601Z,4488.00
2017-09-24T07:23:43.596Z,4768.00
2017-09-24T07:24:43.593Z,5048.00
2017-09-24T07:25:43.591Z,5328.00
2017-09-24T07:26:43.594Z,5548.00
2017-09-24T07:27:43.591Z,5672.00
2017-09-24T07:28:43.588Z,5772.00
2017-09-24T07:29:43.589Z,5868.00
2017-09-24T07:30:43.588Z,5880.00
2017-09-24T07:31:43.591Z,5800.00
2017-09-24T07:32:43.587Z,5656.00
2017-09-24T07:33:43.590Z,5444.00
2017-09-24T07:34:43.590Z,5260.00
2017-09-24T07:35:43.589Z,5084.00
2017-09-24T07:36:43.593Z,4956.00
2017-09-24T07:37:43.591Z,5052.00
2017-09-24T07:38:43.591Z,5080.00
2017-09-24T07:39:43.586Z,5004.00
2017-09-24T07:40:43.589Z,4876.00
2017-09-24T07:41:43.591Z,4720.00
2017-09-24T07:42:43.590Z,4552.00
2017-09-24T07:43:43.595Z,4428.00
2017-09-24T07:44:43.591Z,4460.00
2017-09-24T07:45:43.589Z,4432.00
2017-09-24T07:46:43.592Z,4248.00
2017-09-24T07:47:43.592Z,4120.00
2017-09-24T07:48:43.593Z,3964.00
2017-09-24T07:49:43.590Z,3824.00
2017-09-24T07:50:43.591Z,3624.00
2017-09-24T07:51:43.591Z,3372.00
2017-09-24T07:52:43.588Z,3096.00
2017-09-24T07:53:43.594Z,3112.00
2017-09-24T07:54:43.590Z,3300.00
2017-09-24T07:55:43.589Z,3500.00
2017-09-24T07:56:43.589Z,3660.00
2017-09-24T07:57:43.594Z,3752.00
2017-09-24T07:58:43.595Z,4116.00
2017-09-24T07:59:43.606Z,4404.00
2017-09-24T08:00:43.592Z,4628.00
2017-09-24T08:01:43.591Z,4740.00
2017-09-24T08:02:43.597Z,4720.00
2017-09-24T08:03:43.596Z,4920.00
2017-09-24T08:04:51.232Z,4868.00
2017-09-24T08:06:36.978Z,4828.00
2017-09-24T08:07:36.960Z,4772.00
2017-09-24T08:09:31.353Z,4784.00
2017-09-24T08:10:31.341Z,4764.00
2017-09-24T08:12:25.735Z,4624.00
2017-09-24T08:13:25.712Z,4692.00
2017-09-24T08:14:25.714Z,4760.00
2017-09-24T08:15:25.714Z,4664.00
2017-09-24T08:16:25.708Z,4496.00
2017-09-24T08:17:25.713Z,4456.00
2017-09-24T08:18:25.727Z,4612.00
2017-09-24T08:19:25.714Z,4812.00
2017-09-24T08:20:25.714Z,4968.00
2017-09-24T08:21:25.713Z,5140.00
2017-09-24T08:22:25.729Z,5348.00
2017-09-24T08:23:25.711Z,5724.00
2017-09-24T08:24:25.711Z,6140.00
2017-09-24T08:25:25.714Z,6392.00
2017-09-24T08:26:25.713Z,6520.00
2017-09-24T08:27:25.714Z,6448.00
2017-09-24T08:28:25.720Z,6756.00
2017-09-24T08:29:25.727Z,7056.00
2017-09-24T08:30:25.715Z,6796.00
2017-09-24T08:31:25.717Z,7176.00
2017-09-24T08:32:25.717Z,7064.00
2017-09-24T08:33:25.714Z,6700.00
2017-09-24T08:34:25.719Z,5836.00
2017-09-24T08:35:25.717Z,5376.00
2017-09-24T08:36:25.722Z,5336.00
2017-09-24T08:37:25.718Z,4468.00
2017-09-24T08:38:25.717Z,3704.00
2017-09-24T08:39:25.749Z,3668.00
2017-09-24T08:40:25.718Z,3656.00
2017-09-24T08:41:25.717Z,3476.00
2017-09-24T08:42:25.717Z,3828.00
2017-09-24T08:43:25.718Z,3940.00
2017-09-24T08:44:25.721Z,3492.00
2017-09-24T08:45:25.720Z,3380.00
2017-09-24T08:46:25.720Z,3572.00
2017-09-24T08:47:25.737Z,3536.00
2017-09-24T08:48:25.719Z,3172.00
2017-09-24T08:49:25.725Z,3196.00
2017-09-24T08:50:25.725Z,3400.00
2017-09-24T08:51:25.723Z,3792.00
2017-09-24T08:52:25.724Z,4332.00
2017-09-24T08:53:25.737Z,4972.00
2017-09-24T08:54:25.724Z,5192.00
2017-09-24T08:55:25.723Z,5252.00
2017-09-24T08:56:25.724Z,5108.00
2017-09-24T08:57:25.723Z,4936.00
2017-09-24T08:58:25.722Z,4812.00
2017-09-24T08:59:25.725Z,4304.00
2017-09-24T09:00:25.722Z,4408.00
2017-09-24T09:01:25.727Z,4908.00
2017-09-24T09:02:25.731Z,5552.00
2017-09-24T09:03:25.723Z,5700.00
2017-09-24T09:04:25.723Z,5832.00
2017-09-24T09:05:25.724Z,6044.00
2017-09-24T09:06:25.731Z,6292.00
2017-09-24T09:07:25.723Z,6448.00
2017-09-24T09:08:25.725Z,6788.00
2017-09-24T09:09:25.726Z,6760.00
2017-09-24T09:10:25.724Z,6924.00
2017-09-24T09:11:25.727Z,6644.00
2017-09-24T09:12:25.726Z,6248.00
2017-09-24T09:13:26.296Z,5840.00
2017-09-24T09:14:25.727Z,6032.00
2017-09-24T09:15:25.724Z,6068.00
2017-09-24T09:16:25.730Z,6080.00
2017-09-24T09:17:25.729Z,5708.00
2017-09-24T09:18:25.730Z,5344.00
2017-09-24T09:19:25.732Z,4948.00
2017-09-24T09:20:25.739Z,4852.00
2017-09-24T09:21:25.731Z,4672.00
2017-09-24T09:22:25.739Z,4316.00
2017-09-24T09:23:25.737Z,4612.00
2017-09-24T09:24:25.734Z,4628.00
2017-09-24T09:25:25.733Z,4464.00
2017-09-24T09:26:25.733Z,4852.00
2017-09-24T09:27:25.732Z,4740.00
2017-09-24T09:28:25.739Z,4424.00
2017-09-24T09:29:25.738Z,4304.00
2017-09-24T09:30:25.737Z,4072.00
2017-09-24T09:31:25.738Z,3992.00
2017-09-24T09:32:25.737Z,3812.00
2017-09-24T09:33:25.740Z,3596.00
2017-09-24T09:34:25.748Z,3500.00
2017-09-24T09:35:25.741Z,3520.00
2017-09-24T09:36:25.736Z,3472.00
2017-09-24T09:37:25.741Z,3380.00
2017-09-24T09:38:25.745Z,3236.00
2017-09-24T09:39:25.788Z,3120.00
2017-09-24T09:40:25.744Z,3060.00
2017-09-24T09:41:25.746Z,3100.00
2017-09-24T09:42:25.754Z,3188.00
2017-09-24T09:43:25.750Z,3140.00
2017-09-24T09:44:25.742Z,3056.00
2017-09-24T09:45:25.748Z,3024.00
2017-09-24T09:46:25.742Z,3108.00
2017-09-24T09:47:25.744Z,3336.00
2017-09-24T09:48:25.744Z,3568.00
2017-09-24T09:49:25.744Z,3796.00
2017-09-24T09:50:25.743Z,4032.00
2017-09-24T09:51:25.744Z,4080.00
2017-09-24T09:52:25.743Z,4084.00
2017-09-24T09:53:25.746Z,4092.00
2017-09-24T09:54:25.748Z,4008.00
2017-09-24T09:55:25.746Z,3956.00
2017-09-24T09:56:25.742Z,3980.00
2017-09-24T09:57:25.744Z,3992.00
2017-09-24T09:58:25.743Z,4020.00
2017-09-24T09:59:25.740Z,4196.00
2017-09-24T10:00:25.741Z,4444.00
2017-09-24T10:01:25.748Z,4428.00
2017-09-24T10:02:25.743Z,4396.00
2017-09-24T10:03:25.744Z,4440.00
2017-09-24T10:04:25.743Z,4492.00
2017-09-24T10:05:25.745Z,4576.00
2017-09-24T10:06:26.327Z,4472.00
2017-09-24T10:07:25.742Z,4356.00
2017-09-24T10:08:25.745Z,4412.00
2017-09-24T10:09:25.747Z,4488.00
2017-09-24T10:10:25.744Z,4304.00
2017-09-24T10:11:25.742Z,4120.00
2017-09-24T10:12:25.750Z,4096.00
2017-09-24T10:13:25.745Z,4284.00
2017-09-24T10:14:25.744Z,4304.00
2017-09-24T10:15:25.747Z,4148.00
2017-09-24T10:16:25.745Z,4020.00
2017-09-24T10:17:25.741Z,3900.00
2017-09-24T10:18:25.745Z,3888.00
2017-09-24T10:19:25.743Z,3888.00
2017-09-24T10:20:25.745Z,4060.00
2017-09-24T10:21:25.746Z,4536.00
2017-09-24T10:22:25.766Z,4596.00
2017-09-24T10:23:25.743Z,4588.00
2017-09-24T10:24:25.743Z,4584.00
2017-09-24T10:25:25.743Z,4376.00
2017-09-24T10:26:25.739Z,4040.00
2017-09-24T10:27:25.746Z,4012.00
2017-09-24T10:28:25.740Z,3636.00
2017-09-24T10:29:25.741Z,3188.00
2017-09-24T10:30:25.766Z,3076.00
2017-09-24T10:31:25.739Z,3128.00
2017-09-24T10:32:25.741Z,3528.00
2017-09-24T10:33:25.743Z,3804.00
2017-09-24T10:34:25.743Z,3812.00
2017-09-24T10:35:25.741Z,3984.00
2017-09-24T10:36:25.743Z,4028.00
2017-09-24T10:37:25.739Z,3944.00
2017-09-24T10:38:25.739Z,4024.00
2017-09-24T10:39:25.737Z,4140.00
2017-09-24T10:40:25.735Z,4204.00
2017-09-24T10:41:25.736Z,4180.00
2017-09-24T10:42:25.751Z,4052.00
2017-09-24T10:43:25.730Z,3956.00
2017-09-24T10:44:25.737Z,3880.00
2017-09-24T10:45:25.742Z,3600.00
2017-09-24T10:46:25.735Z,3280.00
2017-09-24T10:47:25.735Z,3156.00
2017-09-24T10:48:25.792Z,3260.00
2017-09-24T10:49:25.736Z,3196.00
2017-09-24T10:50:25.735Z,3040.00
2017-09-24T10:51:25.732Z,3168.00
2017-09-24T10:52:25.732Z,3252.00
2017-09-24T10:53:25.731Z,3348.00
2017-09-24T10:54:25.732Z,3408.00
2017-09-24T10:55:25.730Z,3168.00
2017-09-24T10:56:25.730Z,2924.00
2017-09-24T10:57:25.728Z,2924.00
2017-09-24T10:58:25.732Z,3072.00
2017-09-24T10:59:25.734Z,3236.00
2017-09-24T11:00:25.729Z,3452.00
2017-09-24T11:01:25.727Z,3784.00
2017-09-24T11:02:25.730Z,4048.00
2017-09-24T11:03:25.726Z,4268.00
2017-09-24T11:04:25.725Z,4520.00
2017-09-24T11:05:25.729Z,4912.00
2017-09-24T11:06:25.726Z,4964.00
2017-09-24T11:07:25.728Z,4908.00
2017-09-24T11:08:25.723Z,5096.00
2017-09-24T11:09:25.722Z,5420.00
2017-09-24T11:10:25.723Z,5772.00
2017-09-24T11:11:25.762Z,5948.00
2017-09-24T11:12:25.751Z,5984.00
2017-09-24T11:13:25.737Z,6196.00
2017-09-24T11:14:25.740Z,6684.00
2017-09-24T11:15:25.724Z,6916.00
2017-09-24T11:16:25.725Z,7036.00
2017-09-24T11:17:25.727Z,6968.00
2017-09-24T11:18:25.723Z,6988.00
2017-09-24T11:19:25.726Z,7160.00
2017-09-24T11:20:25.725Z,7224.00
2017-09-24T11:21:25.722Z,7408.00
2017-09-24T11:22:25.725Z,7816.00
2017-09-24T11:23:25.722Z,8088.00
2017-09-24T11:24:25.724Z,8228.00
2017-09-24T11:25:25.726Z,8264.00
2017-09-24T11:26:25.722Z,8400.00
2017-09-24T11:27:25.725Z,8324.00
2017-09-24T11:28:25.726Z,8352.00
2017-09-24T11:29:25.729Z,8224.00
2017-09-24T11:30:25.726Z,8348.00
2017-09-24T11:31:25.723Z,8256.00
2017-09-24T11:32:25.727Z,7876.00
2017-09-24T11:33:25.731Z,7064.00
2017-09-24T11:34:25.735Z,6464.00
2017-09-24T11:35:25.760Z,6476.00
2017-09-24T11:36:25.731Z,6516.00
2017-09-24T11:37:25.729Z,6844.00
2017-09-24T11:38:25.732Z,7444.00
2017-09-24T11:39:25.737Z,8172.00
2017-09-24T11:40:25.731Z,8440.00
2017-09-24T11:41:25.733Z,8500.00
2017-09-24T11:42:25.738Z,8092.00
2017-09-24T11:43:25.734Z,7772.00
2017-09-24T11:44:25.739Z,8120.00
2017-09-24T11:45:25.736Z,8436.00
2017-09-24T11:46:25.738Z,8788.00
2017-09-24T11:47:25.740Z,9676.00
2017-09-24T11:48:25.738Z,9560.00
2017-09-24T11:49:25.737Z,8648.00
2017-09-24T11:50:25.742Z,7780.00
2017-09-24T11:51:25.741Z,7112.00
2017-09-24T11:52:25.746Z,6316.00
2017-09-24T11:53:25.743Z,5756.00
2017-09-24T11:54:25.748Z,5904.00
2017-09-24T11:55:25.744Z,6236.00
2017-09-24T11:56:25.747Z,6440.00
2017-09-24T11:57:25.750Z,6700.00
2017-09-24T11:58:25.751Z,6356.00
2017-09-24T11:59:25.752Z,5888.00
2017-09-24T12:00:25.750Z,5672.00
2017-09-24T12:01:25.761Z,5464.00
2017-09-24T12:02:25.757Z,5444.00
2017-09-24T12:03:25.763Z,5728.00
2017-09-24T12:04:25.759Z,6136.00
2017-09-24T12:05:25.762Z,6520.00
2017-09-24T12:06:25.763Z,6780.00
2017-09-24T12:07:25.761Z,6584.00
2017-09-24T12:08:25.763Z,6216.00
2017-09-24T12:09:25.768Z,6000.00
2017-09-24T12:10:25.768Z,5980.00
2017-09-24T12:11:25.784Z,6124.00
2017-09-24T12:12:25.767Z,6368.00
2017-09-24T12:13:25.773Z,6480.00
2017-09-24T12:14:25.775Z,6196.00
2017-09-24T12:15:25.777Z,5984.00
2017-09-24T12:16:25.777Z,6020.00
2017-09-24T12:17:25.779Z,6260.00
2017-09-24T12:18:25.780Z,6356.00
2017-09-24T12:19:25.781Z,6340.00
2017-09-24T12:20:25.782Z,6376.00
2017-09-24T12:21:25.796Z,6436.00
2017-09-24T12:22:25.786Z,6372.00
2017-09-24T12:23:25.793Z,6156.00
2017-09-24T12:24:25.789Z,5884.00
2017-09-24T12:25:25.791Z,5504.00
2017-09-24T12:26:25.792Z,5168.00
2017-09-24T12:27:25.796Z,4964.00
2017-09-24T12:28:25.802Z,4808.00
2017-09-24T12:29:25.802Z,4616.00
2017-09-24T12:30:25.800Z,4424.00
2017-09-24T12:31:25.796Z,4336.00
2017-09-24T12:32:25.810Z,4324.00
2017-09-24T12:33:25.801Z,4324.00
2017-09-24T12:34:25.801Z,4284.00
2017-09-24T12:35:25.812Z,4224.00
2017-09-24T12:36:25.799Z,4232.00
2017-09-24T12:37:25.818Z,4268.00
2017-09-24T12:38:25.808Z,4172.00
2017-09-24T12:39:25.811Z,3996.00
2017-09-24T12:40:25.811Z,3808.00